sensor_id;sensor_type;location;lat;lon;timestamp;P1;durP1;ratioP1;P2;durP2;ratioP2
53115;SDS011;39010;48.088;7.954;2022-09-09T00:01:04;5.47;;;1.40;;
53115;SDS011;39010;48.088;7.954;2022-09-09T00:08:53;3.45;;;1.20;;
53115;SDS011;39010;48.088;7.954;2022-09-09T00:11:52;2.60;;;1.05;;
53115;SDS011;39010;48.088;7.954;2022-09-09T00:17:14;4.13;;;1.40;;
53115;SDS011;39010;48.088;7.954;2022-09-09T00:22:31;5.65;;;1.60;;
53115;SDS011;39010;48.088;7.954;2022-09-09T00:25:02;6.45;;;1.60;;
53115;SDS011;39010;48.088;7.954;2022-09-09T00:27:41;5.88;;;1.50;;
53115;SDS011;39010;48.088;7.954;2022-09-09T00:30:16;2.63;;;1.30;;
53115;SDS011;39010;48.088;7.954;2022-09-09T00:32:55;8.38;;;1.58;;
53115;SDS011;39010;48.088;7.954;2022-09-09T00:35:29;5.03;;;1.55;;
53115;SDS011;39010;48.088;7.954;2022-09-09T00:38:02;5.10;;;1.80;;
53115;SDS011;39010;48.088;7.954;2022-09-09T00:40:38;4.50;;;1.55;;
53115;SDS011;39010;48.088;7.954;2022-09-09T00:48:43;6.90;;;1.92;;
53115;SDS011;39010;48.088;7.954;2022-09-09T00:59:57;6.43;;;1.65;;
53115;SDS011;39010;48.088;7.954;2022-09-09T01:07:58;5.60;;;1.50;;
53115;SDS011;39010;48.088;7.954;2022-09-09T01:10:31;5.30;;;1.30;;
53115;SDS011;39010;48.088;7.954;2022-09-09T01:13:08;4.10;;;1.42;;
53115;SDS011;39010;48.088;7.954;2022-09-09T01:15:41;5.25;;;1.50;;
53115;SDS011;39010;48.088;7.954;2022-09-09T01:18:12;5.05;;;1.70;;
53115;SDS011;39010;48.088;7.954;2022-09-09T01:29:21;4.97;;;1.63;;
53115;SDS011;39010;48.088;7.954;2022-09-09T01:31:56;6.30;;;1.70;;
53115;SDS011;39010;48.088;7.954;2022-09-09T01:34:25;7.53;;;1.70;;
53115;SDS011;39010;48.088;7.954;2022-09-09T01:37:10;8.60;;;2.35;;
53115;SDS011;39010;48.088;7.954;2022-09-09T01:39:40;7.55;;;2.00;;
53115;SDS011;39010;48.088;7.954;2022-09-09T01:42:13;5.78;;;1.80;;
53115;SDS011;39010;48.088;7.954;2022-09-09T01:44:42;5.07;;;1.90;;
53115;SDS011;39010;48.088;7.954;2022-09-09T01:47:09;6.20;;;1.90;;
53115;SDS011;39010;48.088;7.954;2022-09-09T01:49:51;5.53;;;1.90;;
53115;SDS011;39010;48.088;7.954;2022-09-09T01:52:22;5.85;;;1.88;;
53115;SDS011;39010;48.088;7.954;2022-09-09T01:54:48;6.93;;;2.08;;
53115;SDS011;39010;48.088;7.954;2022-09-09T01:57:23;5.05;;;1.70;;
53115;SDS011;39010;48.088;7.954;2022-09-09T02:05:49;4.25;;;1.88;;
53115;SDS011;39010;48.088;7.954;2022-09-09T02:08:44;5.05;;;1.83;;
53115;SDS011;39010;48.088;7.954;2022-09-09T02:11:14;5.22;;;1.80;;
53115;SDS011;39010;48.088;7.954;2022-09-09T02:13:56;5.65;;;1.83;;
53115;SDS011;39010;48.088;7.954;2022-09-09T02:19:34;4.57;;;1.73;;
53115;SDS011;39010;48.088;7.954;2022-09-09T02:22:13;6.18;;;1.80;;
53115;SDS011;39010;48.088;7.954;2022-09-09T02:24:42;3.42;;;1.70;;
53115;SDS011;39010;48.088;7.954;2022-09-09T02:27:14;5.03;;;1.95;;
53115;SDS011;39010;48.088;7.954;2022-09-09T02:29:43;6.18;;;1.92;;
53115;SDS011;39010;48.088;7.954;2022-09-09T02:32:12;7.88;;;1.90;;
53115;SDS011;39010;48.088;7.954;2022-09-09T02:34:45;5.63;;;2.17;;
53115;SDS011;39010;48.088;7.954;2022-09-09T02:37:16;8.95;;;1.60;;
53115;SDS011;39010;48.088;7.954;2022-09-09T02:39:49;5.13;;;1.70;;
53115;SDS011;39010;48.088;7.954;2022-09-09T02:42:19;8.55;;;1.90;;
53115;SDS011;39010;48.088;7.954;2022-09-09T02:50:22;5.97;;;2.10;;
53115;SDS011;39010;48.088;7.954;2022-09-09T02:53:08;4.15;;;1.73;;
53115;SDS011;39010;48.088;7.954;2022-09-09T02:58:32;5.55;;;1.70;;
53115;SDS011;39010;48.088;7.954;2022-09-09T03:01:03;5.32;;;2.00;;
53115;SDS011;39010;48.088;7.954;2022-09-09T03:03:30;10.23;;;2.58;;
53115;SDS011;39010;48.088;7.954;2022-09-09T03:05:59;7.00;;;2.00;;
53115;SDS011;39010;48.088;7.954;2022-09-09T03:08:27;6.57;;;1.67;;
53115;SDS011;39010;48.088;7.954;2022-09-09T03:10:55;6.63;;;1.90;;
53115;SDS011;39010;48.088;7.954;2022-09-09T03:13:25;5.90;;;1.88;;
53115;SDS011;39010;48.088;7.954;2022-09-09T03:18:19;6.25;;;1.83;;
53115;SDS011;39010;48.088;7.954;2022-09-09T03:20:49;6.53;;;2.25;;
53115;SDS011;39010;48.088;7.954;2022-09-09T03:23:16;6.75;;;1.90;;
53115;SDS011;39010;48.088;7.954;2022-09-09T03:25:50;2.67;;;1.70;;
53115;SDS011;39010;48.088;7.954;2022-09-09T03:28:24;4.15;;;1.73;;
53115;SDS011;39010;48.088;7.954;2022-09-09T03:30:59;4.78;;;1.73;;
53115;SDS011;39010;48.088;7.954;2022-09-09T03:33:34;6.10;;;1.60;;
53115;SDS011;39010;48.088;7.954;2022-09-09T03:36:04;3.35;;;1.65;;
53115;SDS011;39010;48.088;7.954;2022-09-09T03:38:31;4.63;;;1.70;;
53115;SDS011;39010;48.088;7.954;2022-09-09T03:40:59;4.00;;;1.65;;
53115;SDS011;39010;48.088;7.954;2022-09-09T03:43:26;7.90;;;1.92;;
53115;SDS011;39010;48.088;7.954;2022-09-09T03:45:53;7.07;;;1.95;;
53115;SDS011;39010;48.088;7.954;2022-09-09T03:48:25;8.40;;;2.20;;
53115;SDS011;39010;48.088;7.954;2022-09-09T03:50:54;5.38;;;1.98;;
53115;SDS011;39010;48.088;7.954;2022-09-09T03:53:28;4.03;;;2.00;;
53115;SDS011;39010;48.088;7.954;2022-09-09T03:55:56;5.13;;;2.03;;
53115;SDS011;39010;48.088;7.954;2022-09-09T03:58:26;5.18;;;1.52;;
53115;SDS011;39010;48.088;7.954;2022-09-09T04:01:03;3.58;;;1.73;;
53115;SDS011;39010;48.088;7.954;2022-09-09T04:03:31;3.83;;;1.70;;
53115;SDS011;39010;48.088;7.954;2022-09-09T04:05:59;5.70;;;1.50;;
53115;SDS011;39010;48.088;7.954;2022-09-09T04:08:28;5.32;;;1.70;;
53115;SDS011;39010;48.088;7.954;2022-09-09T04:10:56;3.75;;;1.50;;
53115;SDS011;39010;48.088;7.954;2022-09-09T04:13:25;2.95;;;1.50;;
53115;SDS011;39010;48.088;7.954;2022-09-09T04:15:53;5.68;;;1.92;;
53115;SDS011;39010;48.088;7.954;2022-09-09T04:18:21;7.53;;;1.88;;
53115;SDS011;39010;48.088;7.954;2022-09-09T04:20:49;8.02;;;2.13;;
53115;SDS011;39010;48.088;7.954;2022-09-09T04:23:18;4.50;;;1.98;;
53115;SDS011;39010;48.088;7.954;2022-09-09T04:25:53;4.90;;;1.92;;
53115;SDS011;39010;48.088;7.954;2022-09-09T04:28:22;7.95;;;2.30;;
53115;SDS011;39010;48.088;7.954;2022-09-09T04:30:50;6.38;;;2.30;;
53115;SDS011;39010;48.088;7.954;2022-09-09T04:33:18;6.97;;;2.20;;
53115;SDS011;39010;48.088;7.954;2022-09-09T04:35:48;4.35;;;1.90;;
53115;SDS011;39010;48.088;7.954;2022-09-09T04:38:17;4.20;;;2.28;;
53115;SDS011;39010;48.088;7.954;2022-09-09T04:40:47;8.10;;;2.03;;
53115;SDS011;39010;48.088;7.954;2022-09-09T04:43:13;6.90;;;1.90;;
53115;SDS011;39010;48.088;7.954;2022-09-09T04:45:42;9.18;;;1.92;;
53115;SDS011;39010;48.088;7.954;2022-09-09T04:48:10;6.20;;;1.85;;
53115;SDS011;39010;48.088;7.954;2022-09-09T04:50:36;6.95;;;1.63;;
53115;SDS011;39010;48.088;7.954;2022-09-09T04:53:03;3.33;;;1.70;;
53115;SDS011;39010;48.088;7.954;2022-09-09T04:55:32;7.07;;;1.67;;
53115;SDS011;39010;48.088;7.954;2022-09-09T04:58:04;7.32;;;1.67;;
53115;SDS011;39010;48.088;7.954;2022-09-09T05:00:32;4.43;;;1.50;;
53115;SDS011;39010;48.088;7.954;2022-09-09T05:03:05;4.10;;;1.48;;
53115;SDS011;39010;48.088;7.954;2022-09-09T05:05:32;4.38;;;1.60;;
53115;SDS011;39010;48.088;7.954;2022-09-09T05:08:03;3.80;;;1.40;;
53115;SDS011;39010;48.088;7.954;2022-09-09T05:10:31;6.25;;;1.70;;
53115;SDS011;39010;48.088;7.954;2022-09-09T05:12:59;6.97;;;1.60;;
53115;SDS011;39010;48.088;7.954;2022-09-09T05:15:28;6.60;;;1.80;;
53115;SDS011;39010;48.088;7.954;2022-09-09T05:20:26;4.28;;;1.20;;
53115;SDS011;39010;48.088;7.954;2022-09-09T05:22:53;6.70;;;1.52;;
53115;SDS011;39010;48.088;7.954;2022-09-09T05:25:22;3.90;;;1.50;;
53115;SDS011;39010;48.088;7.954;2022-09-09T05:27:50;7.45;;;1.17;;
53115;SDS011;39010;48.088;7.954;2022-09-09T05:32:44;5.18;;;1.45;;
53115;SDS011;39010;48.088;7.954;2022-09-09T05:35:12;7.03;;;1.73;;
53115;SDS011;39010;48.088;7.954;2022-09-09T05:37:39;5.22;;;1.40;;
53115;SDS011;39010;48.088;7.954;2022-09-09T05:42:32;4.53;;;1.00;;
53115;SDS011;39010;48.088;7.954;2022-09-09T05:44:59;6.32;;;1.50;;
53115;SDS011;39010;48.088;7.954;2022-09-09T05:47:26;4.75;;;1.50;;
53115;SDS011;39010;48.088;7.954;2022-09-09T05:49:54;3.33;;;1.20;;
53115;SDS011;39010;48.088;7.954;2022-09-09T05:52:21;6.72;;;1.20;;
53115;SDS011;39010;48.088;7.954;2022-09-09T05:54:49;3.72;;;1.20;;
53115;SDS011;39010;48.088;7.954;2022-09-09T05:57:16;3.30;;;1.05;;
53115;SDS011;39010;48.088;7.954;2022-09-09T05:59:43;6.40;;;1.23;;
53115;SDS011;39010;48.088;7.954;2022-09-09T06:04:36;5.28;;;1.33;;
53115;SDS011;39010;48.088;7.954;2022-09-09T06:07:04;5.13;;;1.02;;
53115;SDS011;39010;48.088;7.954;2022-09-09T06:09:30;3.88;;;1.23;;
53115;SDS011;39010;48.088;7.954;2022-09-09T06:11:57;4.00;;;1.23;;
53115;SDS011;39010;48.088;7.954;2022-09-09T06:14:24;6.32;;;1.10;;
53115;SDS011;39010;48.088;7.954;2022-09-09T06:16:55;7.10;;;1.15;;
53115;SDS011;39010;48.088;7.954;2022-09-09T06:19:26;5.32;;;1.30;;
53115;SDS011;39010;48.088;7.954;2022-09-09T06:21:55;4.45;;;1.13;;
53115;SDS011;39010;48.088;7.954;2022-09-09T06:26:48;6.57;;;1.20;;
53115;SDS011;39010;48.088;7.954;2022-09-09T06:29:19;3.08;;;1.02;;
53115;SDS011;39010;48.088;7.954;2022-09-09T06:31:46;5.25;;;1.10;;
53115;SDS011;39010;48.088;7.954;2022-09-09T06:34:21;4.15;;;1.23;;
53115;SDS011;39010;48.088;7.954;2022-09-09T06:36:52;6.32;;;1.23;;
53115;SDS011;39010;48.088;7.954;2022-09-09T06:41:45;7.17;;;1.13;;
53115;SDS011;39010;48.088;7.954;2022-09-09T06:44:34;4.82;;;1.00;;
53115;SDS011;39010;48.088;7.954;2022-09-09T06:47:02;3.80;;;1.02;;
53115;SDS011;39010;48.088;7.954;2022-09-09T06:49:30;6.03;;;1.20;;
53115;SDS011;39010;48.088;7.954;2022-09-09T06:51:57;5.35;;;1.10;;
53115;SDS011;39010;48.088;7.954;2022-09-09T06:54:24;5.65;;;1.15;;
53115;SDS011;39010;48.088;7.954;2022-09-09T06:56:51;4.43;;;1.20;;
53115;SDS011;39010;48.088;7.954;2022-09-09T06:59:21;3.20;;;1.30;;
53115;SDS011;39010;48.088;7.954;2022-09-09T07:01:50;5.43;;;1.00;;
53115;SDS011;39010;48.088;7.954;2022-09-09T07:04:21;3.30;;;1.30;;
53115;SDS011;39010;48.088;7.954;2022-09-09T07:06:48;5.15;;;1.40;;
53115;SDS011;39010;48.088;7.954;2022-09-09T07:09:19;5.78;;;1.30;;
53115;SDS011;39010;48.088;7.954;2022-09-09T07:11:49;4.55;;;1.20;;
53115;SDS011;39010;48.088;7.954;2022-09-09T07:14:20;3.15;;;0.95;;
53115;SDS011;39010;48.088;7.954;2022-09-09T07:16:54;5.45;;;1.33;;
53115;SDS011;39010;48.088;7.954;2022-09-09T07:19:26;4.72;;;1.40;;
53115;SDS011;39010;48.088;7.954;2022-09-09T07:21:54;5.60;;;1.13;;
53115;SDS011;39010;48.088;7.954;2022-09-09T07:24:22;4.75;;;1.00;;
53115;SDS011;39010;48.088;7.954;2022-09-09T07:26:50;5.38;;;1.35;;
53115;SDS011;39010;48.088;7.954;2022-09-09T07:29:18;5.03;;;1.30;;
53115;SDS011;39010;48.088;7.954;2022-09-09T07:31:47;4.93;;;1.13;;
53115;SDS011;39010;48.088;7.954;2022-09-09T07:34:18;7.85;;;1.20;;
53115;SDS011;39010;48.088;7.954;2022-09-09T07:36:45;4.60;;;1.10;;
53115;SDS011;39010;48.088;7.954;2022-09-09T07:39:13;3.95;;;1.00;;
53115;SDS011;39010;48.088;7.954;2022-09-09T07:41:45;7.88;;;1.33;;
53115;SDS011;39010;48.088;7.954;2022-09-09T07:44:20;5.20;;;1.45;;
53115;SDS011;39010;48.088;7.954;2022-09-09T07:46:53;5.78;;;1.20;;
53115;SDS011;39010;48.088;7.954;2022-09-09T07:49:25;6.60;;;1.50;;
53115;SDS011;39010;48.088;7.954;2022-09-09T07:51:59;5.30;;;1.27;;
53115;SDS011;39010;48.088;7.954;2022-09-09T07:54:25;5.03;;;1.10;;
53115;SDS011;39010;48.088;7.954;2022-09-09T07:56:52;5.18;;;1.15;;
53115;SDS011;39010;48.088;7.954;2022-09-09T07:59:22;6.55;;;1.27;;
53115;SDS011;39010;48.088;7.954;2022-09-09T08:01:51;4.75;;;1.15;;
53115;SDS011;39010;48.088;7.954;2022-09-09T08:04:25;7.40;;;1.40;;
53115;SDS011;39010;48.088;7.954;2022-09-09T08:06:54;7.57;;;1.10;;
53115;SDS011;39010;48.088;7.954;2022-09-09T08:09:27;4.95;;;1.40;;
53115;SDS011;39010;48.088;7.954;2022-09-09T08:12:06;7.38;;;1.25;;
53115;SDS011;39010;48.088;7.954;2022-09-09T08:14:34;8.80;;;1.38;;
53115;SDS011;39010;48.088;7.954;2022-09-09T08:17:00;11.00;;;1.30;;
53115;SDS011;39010;48.088;7.954;2022-09-09T08:19:28;6.80;;;1.60;;
53115;SDS011;39010;48.088;7.954;2022-09-09T08:22:04;5.20;;;1.30;;
53115;SDS011;39010;48.088;7.954;2022-09-09T08:24:32;3.13;;;1.15;;
53115;SDS011;39010;48.088;7.954;2022-09-09T08:26:58;6.95;;;1.40;;
53115;SDS011;39010;48.088;7.954;2022-09-09T08:29:26;4.97;;;1.15;;
53115;SDS011;39010;48.088;7.954;2022-09-09T08:31:55;7.93;;;1.30;;
53115;SDS011;39010;48.088;7.954;2022-09-09T08:34:25;4.50;;;1.10;;
53115;SDS011;39010;48.088;7.954;2022-09-09T08:36:55;9.10;;;1.30;;
53115;SDS011;39010;48.088;7.954;2022-09-09T08:39:28;4.68;;;1.23;;
53115;SDS011;39010;48.088;7.954;2022-09-09T08:41:58;5.28;;;1.30;;
53115;SDS011;39010;48.088;7.954;2022-09-09T08:47:29;4.13;;;1.30;;
53115;SDS011;39010;48.088;7.954;2022-09-09T08:50:34;7.63;;;1.30;;
53115;SDS011;39010;48.088;7.954;2022-09-09T08:53:20;3.72;;;1.08;;
53115;SDS011;39010;48.088;7.954;2022-09-09T08:55:59;5.38;;;1.00;;
53115;SDS011;39010;48.088;7.954;2022-09-09T08:58:49;3.22;;;1.08;;
53115;SDS011;39010;48.088;7.954;2022-09-09T09:13:10;3.45;;;1.00;;
53115;SDS011;39010;48.088;7.954;2022-09-09T09:15:50;6.68;;;1.63;;
53115;SDS011;39010;48.088;7.954;2022-09-09T09:18:23;8.93;;;1.10;;
53115;SDS011;39010;48.088;7.954;2022-09-09T09:23:45;4.75;;;1.33;;
53115;SDS011;39010;48.088;7.954;2022-09-09T09:26:34;15.55;;;1.15;;
53115;SDS011;39010;48.088;7.954;2022-09-09T09:29:08;3.33;;;1.10;;
53115;SDS011;39010;48.088;7.954;2022-09-09T09:31:38;5.65;;;1.13;;
53115;SDS011;39010;48.088;7.954;2022-09-09T09:34:07;4.28;;;1.05;;
53115;SDS011;39010;48.088;7.954;2022-09-09T09:36:39;6.00;;;1.52;;
53115;SDS011;39010;48.088;7.954;2022-09-09T09:39:31;7.10;;;1.17;;
53115;SDS011;39010;48.088;7.954;2022-09-09T09:42:24;6.68;;;1.20;;
53115;SDS011;39010;48.088;7.954;2022-09-09T09:44:54;5.68;;;1.25;;
53115;SDS011;39010;48.088;7.954;2022-09-09T09:47:21;3.67;;;1.10;;
53115;SDS011;39010;48.088;7.954;2022-09-09T09:50:17;6.40;;;1.05;;
53115;SDS011;39010;48.088;7.954;2022-09-09T09:52:53;5.88;;;1.02;;
53115;SDS011;39010;48.088;7.954;2022-09-09T09:55:21;5.15;;;1.10;;
53115;SDS011;39010;48.088;7.954;2022-09-09T09:57:50;5.28;;;0.95;;
53115;SDS011;39010;48.088;7.954;2022-09-09T10:00:20;5.80;;;1.17;;
53115;SDS011;39010;48.088;7.954;2022-09-09T10:02:55;2.95;;;1.10;;
53115;SDS011;39010;48.088;7.954;2022-09-09T10:05:26;5.10;;;1.08;;
53115;SDS011;39010;48.088;7.954;2022-09-09T10:08:10;4.03;;;0.95;;
53115;SDS011;39010;48.088;7.954;2022-09-09T10:10:42;5.43;;;0.90;;
53115;SDS011;39010;48.088;7.954;2022-09-09T10:16:20;6.80;;;1.10;;
53115;SDS011;39010;48.088;7.954;2022-09-09T10:19:16;4.07;;;1.08;;
53115;SDS011;39010;48.088;7.954;2022-09-09T10:24:48;5.55;;;1.10;;
53115;SDS011;39010;48.088;7.954;2022-09-09T10:30:37;5.93;;;1.08;;
53115;SDS011;39010;48.088;7.954;2022-09-09T10:33:20;5.25;;;1.15;;
53115;SDS011;39010;48.088;7.954;2022-09-09T10:38:39;7.07;;;0.90;;
53115;SDS011;39010;48.088;7.954;2022-09-09T10:44:05;4.32;;;1.60;;
53115;SDS011;39010;48.088;7.954;2022-09-09T10:49:47;4.75;;;1.23;;
53115;SDS011;39010;48.088;7.954;2022-09-09T10:52:55;4.53;;;1.05;;
53115;SDS011;39010;48.088;7.954;2022-09-09T10:55:45;4.90;;;1.13;;
53115;SDS011;39010;48.088;7.954;2022-09-09T10:58:22;7.07;;;1.00;;
53115;SDS011;39010;48.088;7.954;2022-09-09T11:00:54;4.50;;;1.33;;
53115;SDS011;39010;48.088;7.954;2022-09-09T11:03:26;6.97;;;1.35;;
53115;SDS011;39010;48.088;7.954;2022-09-09T11:06:00;9.57;;;1.33;;
53115;SDS011;39010;48.088;7.954;2022-09-09T11:08:36;2.72;;;0.80;;
53115;SDS011;39010;48.088;7.954;2022-09-09T11:11:19;4.60;;;0.93;;
53115;SDS011;39010;48.088;7.954;2022-09-09T11:13:58;6.57;;;1.48;;
53115;SDS011;39010;48.088;7.954;2022-09-09T11:16:42;6.53;;;1.17;;
53115;SDS011;39010;48.088;7.954;2022-09-09T11:19:16;4.03;;;1.13;;
53115;SDS011;39010;48.088;7.954;2022-09-09T11:21:46;5.53;;;0.98;;
53115;SDS011;39010;48.088;7.954;2022-09-09T11:32:53;5.00;;;0.93;;
53115;SDS011;39010;48.088;7.954;2022-09-09T11:41:12;3.50;;;1.00;;
53115;SDS011;39010;48.088;7.954;2022-09-09T11:43:50;9.05;;;1.30;;
53115;SDS011;39010;48.088;7.954;2022-09-09T11:46:19;4.30;;;0.90;;
53115;SDS011;39010;48.088;7.954;2022-09-09T11:48:58;4.38;;;0.93;;
53115;SDS011;39010;48.088;7.954;2022-09-09T11:51:31;4.53;;;0.90;;
53115;SDS011;39010;48.088;7.954;2022-09-09T11:54:02;7.20;;;1.92;;
53115;SDS011;39010;48.088;7.954;2022-09-09T11:56:58;3.53;;;1.00;;
53115;SDS011;39010;48.088;7.954;2022-09-09T11:59:31;4.25;;;0.80;;
53115;SDS011;39010;48.088;7.954;2022-09-09T12:01:59;4.97;;;0.90;;
53115;SDS011;39010;48.088;7.954;2022-09-09T12:04:32;4.38;;;1.10;;
53115;SDS011;39010;48.088;7.954;2022-09-09T12:12:37;6.72;;;0.98;;
53115;SDS011;39010;48.088;7.954;2022-09-09T12:28:06;5.43;;;1.10;;
53115;SDS011;39010;48.088;7.954;2022-09-09T12:33:19;6.13;;;1.00;;
53115;SDS011;39010;48.088;7.954;2022-09-09T12:35:50;6.05;;;1.00;;
53115;SDS011;39010;48.088;7.954;2022-09-09T12:38:23;5.85;;;1.10;;
53115;SDS011;39010;48.088;7.954;2022-09-09T12:40:58;6.38;;;0.88;;
53115;SDS011;39010;48.088;7.954;2022-09-09T12:43:25;1.95;;;0.70;;
53115;SDS011;39010;48.088;7.954;2022-09-09T12:46:00;4.43;;;0.77;;
53115;SDS011;39010;48.088;7.954;2022-09-09T12:48:36;2.67;;;0.80;;
53115;SDS011;39010;48.088;7.954;2022-09-09T12:51:07;3.85;;;0.77;;
53115;SDS011;39010;48.088;7.954;2022-09-09T12:53:47;4.53;;;0.82;;
53115;SDS011;39010;48.088;7.954;2022-09-09T12:59:22;5.32;;;0.90;;
53115;SDS011;39010;48.088;7.954;2022-09-09T13:01:58;7.53;;;1.00;;
53115;SDS011;39010;48.088;7.954;2022-09-09T13:04:25;7.57;;;1.10;;
53115;SDS011;39010;48.088;7.954;2022-09-09T13:06:52;4.07;;;1.02;;
53115;SDS011;39010;48.088;7.954;2022-09-09T13:09:18;4.38;;;1.10;;
53115;SDS011;39010;48.088;7.954;2022-09-09T13:11:47;4.30;;;0.80;;
53115;SDS011;39010;48.088;7.954;2022-09-09T13:14:20;6.10;;;0.88;;
53115;SDS011;39010;48.088;7.954;2022-09-09T13:16:58;4.85;;;0.70;;
53115;SDS011;39010;48.088;7.954;2022-09-09T13:19:33;6.40;;;0.80;;
53115;SDS011;39010;48.088;7.954;2022-09-09T13:22:19;5.78;;;0.82;;
53115;SDS011;39010;48.088;7.954;2022-09-09T13:25:18;4.50;;;1.08;;
53115;SDS011;39010;48.088;7.954;2022-09-09T13:27:58;4.32;;;0.95;;
53115;SDS011;39010;48.088;7.954;2022-09-09T13:30:31;4.88;;;1.00;;
53115;SDS011;39010;48.088;7.954;2022-09-09T13:33:03;2.65;;;0.90;;
53115;SDS011;39010;48.088;7.954;2022-09-09T13:38:55;3.65;;;1.08;;
53115;SDS011;39010;48.088;7.954;2022-09-09T13:41:28;9.93;;;1.25;;
53115;SDS011;39010;48.088;7.954;2022-09-09T13:43:57;3.28;;;0.65;;
53115;SDS011;39010;48.088;7.954;2022-09-09T13:46:47;1.63;;;0.70;;
53115;SDS011;39010;48.088;7.954;2022-09-09T13:54:12;4.05;;;0.90;;
53115;SDS011;39010;48.088;7.954;2022-09-09T13:56:40;3.85;;;0.55;;
53115;SDS011;39010;48.088;7.954;2022-09-09T13:59:14;4.72;;;0.73;;
53115;SDS011;39010;48.088;7.954;2022-09-09T14:01:42;1.33;;;0.55;;
53115;SDS011;39010;48.088;7.954;2022-09-09T14:04:09;2.53;;;0.70;;
53115;SDS011;39010;48.088;7.954;2022-09-09T14:06:36;3.15;;;0.70;;
53115;SDS011;39010;48.088;7.954;2022-09-09T14:09:05;5.38;;;0.75;;
53115;SDS011;39010;48.088;7.954;2022-09-09T14:11:33;1.35;;;0.45;;
53115;SDS011;39010;48.088;7.954;2022-09-09T14:16:27;4.18;;;0.77;;
53115;SDS011;39010;48.088;7.954;2022-09-09T14:18:53;4.47;;;0.63;;
53115;SDS011;39010;48.088;7.954;2022-09-09T14:21:23;0.98;;;0.60;;
53115;SDS011;39010;48.088;7.954;2022-09-09T14:23:50;2.20;;;0.88;;
53115;SDS011;39010;48.088;7.954;2022-09-09T14:26:16;3.38;;;0.90;;
53115;SDS011;39010;48.088;7.954;2022-09-09T14:28:44;4.63;;;0.65;;
53115;SDS011;39010;48.088;7.954;2022-09-09T14:31:21;3.03;;;0.60;;
53115;SDS011;39010;48.088;7.954;2022-09-09T14:33:48;3.42;;;0.70;;
53115;SDS011;39010;48.088;7.954;2022-09-09T14:36:18;2.28;;;0.88;;
53115;SDS011;39010;48.088;7.954;2022-09-09T14:38:44;4.70;;;1.00;;
53115;SDS011;39010;48.088;7.954;2022-09-09T14:41:11;2.90;;;0.60;;
53115;SDS011;39010;48.088;7.954;2022-09-09T14:43:43;2.50;;;0.70;;
53115;SDS011;39010;48.088;7.954;2022-09-09T14:46:11;3.25;;;0.80;;
53115;SDS011;39010;48.088;7.954;2022-09-09T14:48:39;3.75;;;0.90;;
53115;SDS011;39010;48.088;7.954;2022-09-09T14:51:08;5.20;;;0.65;;
53115;SDS011;39010;48.088;7.954;2022-09-09T14:53:36;3.80;;;0.82;;
53115;SDS011;39010;48.088;7.954;2022-09-09T14:56:10;3.85;;;1.00;;
53115;SDS011;39010;48.088;7.954;2022-09-09T14:58:38;3.10;;;0.90;;
53115;SDS011;39010;48.088;7.954;2022-09-09T15:01:06;2.90;;;1.42;;
53115;SDS011;39010;48.088;7.954;2022-09-09T15:03:36;1.17;;;0.63;;
53115;SDS011;39010;48.088;7.954;2022-09-09T15:06:13;2.05;;;0.60;;
53115;SDS011;39010;48.088;7.954;2022-09-09T15:08:41;4.07;;;1.00;;
53115;SDS011;39010;48.088;7.954;2022-09-09T15:11:09;3.20;;;0.85;;
53115;SDS011;39010;48.088;7.954;2022-09-09T15:13:38;5.53;;;1.25;;
53115;SDS011;39010;48.088;7.954;2022-09-09T15:16:16;4.63;;;0.60;;
53115;SDS011;39010;48.088;7.954;2022-09-09T15:18:44;3.60;;;0.88;;
53115;SDS011;39010;48.088;7.954;2022-09-09T15:21:13;4.68;;;0.80;;
53115;SDS011;39010;48.088;7.954;2022-09-09T15:23:45;4.30;;;1.00;;
53115;SDS011;39010;48.088;7.954;2022-09-09T15:26:11;3.05;;;0.90;;
53115;SDS011;39010;48.088;7.954;2022-09-09T15:28:41;4.35;;;0.80;;
53115;SDS011;39010;48.088;7.954;2022-09-09T15:33:37;2.90;;;0.73;;
53115;SDS011;39010;48.088;7.954;2022-09-09T15:38:43;5.25;;;0.77;;
53115;SDS011;39010;48.088;7.954;2022-09-09T15:41:10;2.13;;;0.80;;
53115;SDS011;39010;48.088;7.954;2022-09-09T15:43:37;4.82;;;0.82;;
53115;SDS011;39010;48.088;7.954;2022-09-09T15:46:16;4.45;;;0.80;;
53115;SDS011;39010;48.088;7.954;2022-09-09T15:48:50;2.92;;;0.60;;
53115;SDS011;39010;48.088;7.954;2022-09-09T15:51:20;3.35;;;0.50;;
53115;SDS011;39010;48.088;7.954;2022-09-09T15:54:06;5.20;;;0.85;;
53115;SDS011;39010;48.088;7.954;2022-09-09T15:56:33;3.05;;;0.77;;
53115;SDS011;39010;48.088;7.954;2022-09-09T15:59:01;3.55;;;0.85;;
53115;SDS011;39010;48.088;7.954;2022-09-09T16:01:31;1.92;;;0.60;;
53115;SDS011;39010;48.088;7.954;2022-09-09T16:03:58;2.80;;;0.80;;
53115;SDS011;39010;48.088;7.954;2022-09-09T16:06:26;3.63;;;0.85;;
53115;SDS011;39010;48.088;7.954;2022-09-09T16:08:55;1.88;;;0.77;;
53115;SDS011;39010;48.088;7.954;2022-09-09T16:11:23;3.08;;;0.75;;
53115;SDS011;39010;48.088;7.954;2022-09-09T16:13:52;3.67;;;0.90;;
53115;SDS011;39010;48.088;7.954;2022-09-09T16:16:22;3.75;;;0.70;;
53115;SDS011;39010;48.088;7.954;2022-09-09T16:18:51;5.82;;;1.00;;
53115;SDS011;39010;48.088;7.954;2022-09-09T16:21:23;2.63;;;0.70;;
53115;SDS011;39010;48.088;7.954;2022-09-09T16:23:52;4.53;;;1.10;;
53115;SDS011;39010;48.088;7.954;2022-09-09T16:26:22;3.65;;;0.77;;
53115;SDS011;39010;48.088;7.954;2022-09-09T16:28:49;5.40;;;1.15;;
53115;SDS011;39010;48.088;7.954;2022-09-09T16:31:16;2.08;;;0.90;;
53115;SDS011;39010;48.088;7.954;2022-09-09T16:33:45;5.57;;;0.95;;
53115;SDS011;39010;48.088;7.954;2022-09-09T16:36:14;5.25;;;0.82;;
53115;SDS011;39010;48.088;7.954;2022-09-09T16:38:42;4.40;;;1.00;;
53115;SDS011;39010;48.088;7.954;2022-09-09T16:41:12;3.42;;;0.80;;
53115;SDS011;39010;48.088;7.954;2022-09-09T16:43:40;4.85;;;0.68;;
53115;SDS011;39010;48.088;7.954;2022-09-09T16:46:14;5.28;;;1.02;;
53115;SDS011;39010;48.088;7.954;2022-09-09T16:48:42;4.07;;;1.00;;
53115;SDS011;39010;48.088;7.954;2022-09-09T16:51:20;4.22;;;1.33;;
53115;SDS011;39010;48.088;7.954;2022-09-09T16:53:55;2.42;;;0.80;;
53115;SDS011;39010;48.088;7.954;2022-09-09T16:56:24;4.00;;;0.70;;
53115;SDS011;39010;48.088;7.954;2022-09-09T16:58:59;6.00;;;1.10;;
53115;SDS011;39010;48.088;7.954;2022-09-09T17:01:29;4.97;;;0.93;;
53115;SDS011;39010;48.088;7.954;2022-09-09T17:04:00;5.32;;;1.13;;
53115;SDS011;39010;48.088;7.954;2022-09-09T17:06:29;3.53;;;1.20;;
53115;SDS011;39010;48.088;7.954;2022-09-09T17:08:59;3.88;;;0.80;;
53115;SDS011;39010;48.088;7.954;2022-09-09T17:11:27;3.75;;;0.90;;
53115;SDS011;39010;48.088;7.954;2022-09-09T17:13:55;3.83;;;1.00;;
53115;SDS011;39010;48.088;7.954;2022-09-09T17:16:24;2.13;;;0.82;;
53115;SDS011;39010;48.088;7.954;2022-09-09T17:18:53;3.25;;;0.88;;
53115;SDS011;39010;48.088;7.954;2022-09-09T17:21:22;3.40;;;0.90;;
53115;SDS011;39010;48.088;7.954;2022-09-09T17:23:51;3.60;;;1.33;;
53115;SDS011;39010;48.088;7.954;2022-09-09T17:26:22;3.28;;;1.13;;
53115;SDS011;39010;48.088;7.954;2022-09-09T17:28:53;4.43;;;1.40;;
53115;SDS011;39010;48.088;7.954;2022-09-09T17:31:25;3.80;;;1.10;;
53115;SDS011;39010;48.088;7.954;2022-09-09T17:33:54;2.05;;;1.13;;
53115;SDS011;39010;48.088;7.954;2022-09-09T17:36:22;4.97;;;1.67;;
53115;SDS011;39010;48.088;7.954;2022-09-09T17:38:51;4.85;;;1.30;;
53115;SDS011;39010;48.088;7.954;2022-09-09T17:41:22;5.25;;;1.90;;
53115;SDS011;39010;48.088;7.954;2022-09-09T17:43:54;3.25;;;1.40;;
53115;SDS011;39010;48.088;7.954;2022-09-09T17:46:27;3.17;;;1.10;;
53115;SDS011;39010;48.088;7.954;2022-09-09T17:49:07;2.70;;;1.10;;
53115;SDS011;39010;48.088;7.954;2022-09-09T17:51:36;4.03;;;0.85;;
53115;SDS011;39010;48.088;7.954;2022-09-09T17:54:04;3.85;;;0.80;;
53115;SDS011;39010;48.088;7.954;2022-09-09T17:56:37;8.05;;;1.10;;
53115;SDS011;39010;48.088;7.954;2022-09-09T17:59:05;3.47;;;1.02;;